Time;durP1;ratioP1;P1;durP2;ratioP2;P2;SDS_P1;SDS_P2;PMS_P1;PMS_P2;Temp;Humidity;BMP_temperature;BMP_pressure;BME280_temperature;BME280_humidity;BME280_pressure;Samples;Min_cycle;Max_cycle;Signal;HPM_P1;HPM_P2
2021/03/11 00:02:04;;;;;;;35.40;19.50;;;;;;;-2.36;58.94;101704.47;1673134;86;21227;-53
2021/03/11 00:05:08;;;;;;;36.30;17.52;;;;;;;-2.30;58.85;101700.19;1673099;86;21764;-54
2021/03/11 00:08:13;;;;;;;61.58;28.75;;;;;;;-2.31;58.83;101701.14;1673164;86;21192;-53
2021/03/11 00:11:20;;;;;;;50.98;26.55;;;;;;;-2.26;58.96;101704.51;1673249;86;21235;-54
2021/03/11 00:14:27;;;;;;;40.75;22.30;;;;;;;-2.17;58.96;101706.80;1672926;86;21207;-53
2021/03/11 00:17:34;;;;;;;30.68;17.82;;;;;;;-2.14;58.88;101705.33;1673203;85;21224;-54
2021/03/11 00:20:39;;;;;;;38.80;17.50;;;;;;;-2.12;58.83;101706.60;1673198;86;21733;-54
2021/03/11 00:23:46;;;;;;;35.50;17.60;;;;;;;-2.13;58.94;101700.39;1672500;85;21232;-54
2021/03/11 00:26:54;;;;;;;217.80;87.65;;;;;;;-2.17;58.85;101701.44;1673439;85;21275;-54
2021/03/11 00:29:59;;;;;;;187.72;71.92;;;;;;;-2.20;59.17;101696.20;1673253;86;21231;-55
2021/03/11 00:33:04;;;;;;;191.68;75.17;;;;;;;-2.18;59.29;101692.11;1673365;86;21247;-54
2021/03/11 00:36:09;;;;;;;169.28;69.10;;;;;;;-2.18;59.41;101693.00;1675013;85;21239;-54
2021/03/11 00:39:14;;;;;;;133.00;53.23;;;;;;;-2.16;59.32;101693.81;1678746;85;21260;-54
2021/03/11 00:42:14;;;;;;;121.30;49.60;;;;;;;-2.19;59.36;101691.72;1678513;85;21365;-54
2021/03/11 00:45:20;;;;;;;54.80;26.42;;;;;;;-2.18;59.55;101688.09;1678695;85;21851;-55
2021/03/11 00:48:25;;;;;;;174.25;64.55;;;;;;;-2.19;59.53;101688.55;1678671;85;21417;-54
2021/03/11 00:51:30;;;;;;;162.50;60.12;;;;;;;-2.20;59.56;101686.81;1678600;85;21976;-54
2021/03/11 00:54:36;;;;;;;170.82;64.32;;;;;;;-2.30;59.34;101682.76;1678685;85;21361;-54
2021/03/11 00:57:45;;;;;;;135.95;52.60;;;;;;;-2.43;59.46;101686.02;1678413;85;21365;-54
2021/03/11 01:00:51;;;;;;;137.77;55.45;;;;;;;-2.50;59.87;101681.37;1678653;85;21904;-54
2021/03/11 01:04:01;;;;;;;108.35;43.75;;;;;;;-2.49;59.94;101685.78;1678549;85;21385;-55
2021/03/11 01:07:07;;;;;;;82.75;38.38;;;;;;;-2.51;59.79;101672.94;1678775;85;21331;-55
2021/03/11 01:10:14;;;;;;;79.60;37.98;;;;;;;-2.56;59.86;101676.27;1679084;85;21377;-55
2021/03/11 01:13:20;;;;;;;82.33;35.95;;;;;;;-2.56;60.10;101677.61;1678618;85;21389;-55
2021/03/11 01:16:25;;;;;;;75.08;34.18;;;;;;;-2.49;60.31;101677.74;1678761;85;21224;-56
2021/03/11 01:19:32;;;;;;;53.33;26.23;;;;;;;-2.42;60.39;101671.67;1678469;85;21757;-55
2021/03/11 01:22:37;;;;;;;65.08;29.80;;;;;;;-2.44;59.93;101676.24;1678472;85;21413;-55
2021/03/11 01:25:44;;;;;;;69.10;32.40;;;;;;;-2.55;59.92;101678.00;1678747;85;21219;-55
2021/03/11 01:28:50;;;;;;;74.22;35.13;;;;;;;-2.56;60.09;101681.63;1678731;85;21728;-55
2021/03/11 01:31:55;;;;;;;71.35;32.90;;;;;;;-2.60;60.10;101679.98;1678556;85;21306;-53
2021/03/11 01:35:02;;;;;;;62.05;28.60;;;;;;;-2.59;60.26;101669.69;1678676;85;21354;-53
2021/03/11 01:38:08;;;;;;;38.23;19.80;;;;;;;-2.61;60.02;101676.03;1667809;83;21272;-54
2021/03/11 01:41:15;;;;;;;38.50;19.27;;;;;;;-2.77;60.04;101686.48;1666499;86;21378;-55
2021/03/11 01:44:21;;;;;;;39.15;17.12;;;;;;;-2.82;60.27;101679.09;1666956;85;21212;-55
2021/03/11 01:47:26;;;;;;;36.13;17.85;;;;;;;-2.76;60.43;101692.27;1666795;85;21394;-53
2021/03/11 01:50:32;;;;;;;36.85;17.15;;;;;;;-2.69;60.35;101687.52;1666603;86;21398;-53
2021/03/11 01:53:38;;;;;;;35.85;18.32;;;;;;;-2.69;60.00;101689.73;1666556;85;21236;-55
2021/03/11 01:56:46;;;;;;;33.70;17.30;;;;;;;-2.67;59.90;101679.84;1666930;85;21475;-54
2021/03/11 01:59:52;;;;;;;38.23;18.62;;;;;;;-2.65;59.82;101683.34;1666764;85;21394;-54
2021/03/11 02:02:59;;;;;;;48.02;21.82;;;;;;;-2.64;59.76;101688.21;1667383;85;21394;-54
2021/03/11 02:06:04;;;;;;;39.25;19.62;;;;;;;-2.65;59.73;101687.36;1666660;86;21355;-55
2021/03/11 02:09:11;;;;;;;34.67;19.32;;;;;;;-2.67;59.58;101690.56;1666592;86;21374;-55
2021/03/11 02:12:32;;;;;;;29.20;17.92;;;;;;;-2.72;59.64;101689.86;1666415;86;21465;-56
2021/03/11 02:16:02;;;;;;;28.32;16.40;;;;;;;-2.73;59.69;101693.48;1666546;86;21402;-55
2021/03/11 02:19:40;;;;;;;31.55;15.40;;;;;;;-2.80;59.47;101685.73;1666938;85;21800;-55
2021/03/11 02:23:25;;;;;;;31.05;14.50;;;;;;;-2.96;59.64;101697.51;1666510;86;21449;-55
2021/03/11 02:27:13;;;;;;;24.32;13.00;;;;;;;-3.15;59.64;101695.13;1666815;85;21370;-55
2021/03/11 02:30:20;;;;;;;31.60;15.50;;;;;;;-3.29;60.23;101698.78;1666531;86;21347;-55
2021/03/11 02:33:26;;;;;;;32.40;17.40;;;;;;;-3.35;60.39;101695.88;1666494;86;21374;-54
2021/03/11 02:36:33;;;;;;;38.98;20.02;;;;;;;-3.30;60.54;101695.22;1666624;86;21342;-55
2021/03/11 02:39:38;;;;;;;40.33;19.35;;;;;;;-3.24;60.63;101703.51;1668513;85;21280;-54
2021/03/11 02:42:45;;;;;;;48.48;23.15;;;;;;;-3.15;60.67;101715.20;1668696;86;21234;-54
2021/03/11 02:45:50;;;;;;;48.87;23.02;;;;;;;-3.13;60.34;101706.66;1668614;86;21208;-54
2021/03/11 02:48:57;;;;;;;47.27;23.67;;;;;;;-3.16;60.46;101709.00;1668543;86;21355;-55
2021/03/11 02:52:02;;;;;;;62.35;26.97;;;;;;;-3.11;60.54;101710.16;1668654;86;21231;-54
2021/03/11 02:55:08;;;;;;;65.67;30.92;;;;;;;-3.08;60.35;101712.72;1668502;86;21259;-54
2021/03/11 02:58:18;;;;;;;97.53;43.17;;;;;;;-3.07;60.31;101712.66;1668658;86;21286;-54
2021/03/11 03:01:24;;;;;;;138.92;60.03;;;;;;;-3.10;60.21;101708.76;1668542;86;21252;-54
2021/03/11 03:04:30;;;;;;;128.72;55.88;;;;;;;-3.26;60.16;101704.91;1668619;86;21747;-54
2021/03/11 03:07:37;;;;;;;74.25;33.13;;;;;;;-3.34;60.35;101712.80;1668723;86;21253;-54
2021/03/11 03:10:42;;;;;;;47.83;23.85;;;;;;;-3.44;60.55;101719.44;1668812;86;21208;-54
2021/03/11 03:13:51;;;;;;;50.12;24.90;;;;;;;-3.46;60.75;101715.48;1668603;86;21320;-54
2021/03/11 03:16:57;;;;;;;44.95;23.45;;;;;;;-3.48;60.77;101720.45;1668523;86;21329;-55
2021/03/11 03:20:02;;;;;;;53.10;25.68;;;;;;;-3.39;60.98;101724.13;1668825;86;21248;-55
2021/03/11 03:23:07;;;;;;;80.72;40.25;;;;;;;-3.28;60.91;101723.27;1668701;86;21228;-55
2021/03/11 03:26:14;;;;;;;64.40;31.40;;;;;;;-3.27;60.60;101718.34;1652903;85;21231;-55
2021/03/11 03:29:19;;;;;;;82.05;39.80;;;;;;;-3.37;60.40;101716.92;1668489;86;21286;-55
2021/03/11 03:32:24;;;;;;;69.55;34.00;;;;;;;-3.49;60.70;101717.38;1668505;86;21240;-55
2021/03/11 03:35:31;;;;;;;59.50;28.60;;;;;;;-3.56;60.70;101722.08;1668740;86;21271;-54
2021/03/11 03:38:36;;;;;;;53.20;26.33;;;;;;;-3.65;60.83;101723.75;1667165;84;21255;-54
2021/03/11 03:41:42;;;;;;;64.53;30.12;;;;;;;-3.68;60.93;101725.16;1668763;86;21283;-54
2021/03/11 03:44:49;;;;;;;54.50;24.70;;;;;;;-3.70;61.06;101725.70;1653201;86;21351;-53
2021/03/11 03:47:57;;;;;;;38.95;19.57;;;;;;;-3.72;61.02;101729.34;1668629;86;21772;-54
2021/03/11 03:51:02;;;;;;;51.73;22.62;;;;;;;-3.73;61.32;101719.58;1668596;86;21287;-54
2021/03/11 03:54:18;;;;;;;40.23;18.70;;;;;;;-3.58;61.36;101719.02;1668598;86;21231;-55
2021/03/11 03:57:28;;;;;;;45.70;19.80;;;;;;;-3.61;60.92;101716.46;1668619;86;21247;-55
2021/03/11 04:00:34;;;;;;;30.48;16.17;;;;;;;-3.56;61.07;101726.55;1668719;86;21212;-55
2021/03/11 04:03:40;;;;;;;53.98;24.45;;;;;;;-3.47;60.98;101726.20;1668585;86;21228;-55
2021/03/11 04:06:47;;;;;;;64.42;28.12;;;;;;;-3.45;60.64;101733.72;1668680;86;21212;-55
2021/03/11 04:09:52;;;;;;;83.67;35.98;;;;;;;-3.36;60.90;101738.73;1668911;86;21809;-54
2021/03/11 04:12:58;;;;;;;83.42;36.03;;;;;;;-3.29;60.84;101739.82;1668815;86;21296;-54
2021/03/11 04:16:03;;;;;;;101.80;39.20;;;;;;;-3.22;60.68;101741.81;1668783;86;21224;-53
2021/03/11 04:19:10;;;;;;;59.90;29.50;;;;;;;-3.20;60.42;101747.51;1668852;86;21251;-54
2021/03/11 04:22:16;;;;;;;63.42;31.25;;;;;;;-3.17;60.54;101746.51;1668883;86;21283;-53
2021/03/11 04:25:20;;;;;;;92.85;40.05;;;;;;;-3.12;60.46;101735.17;1652926;85;21791;-54
2021/03/11 04:28:26;;;;;;;378.15;160.97;;;;;;;-3.06;60.17;101742.52;1668800;86;21332;-54
2021/03/11 04:31:32;;;;;;;322.33;161.15;;;;;;;-3.05;60.05;101746.08;1668882;86;21231;-55
2021/03/11 04:34:37;;;;;;;347.42;134.40;;;;;;;-3.04;59.95;101751.83;1668867;86;21235;-53
2021/03/11 04:37:42;;;;;;;383.25;86.92;;;;;;;-2.98;59.98;101756.95;1668967;86;21259;-53
2021/03/11 04:40:47;;;;;;;335.25;75.05;;;;;;;-2.99;59.63;101751.65;1680262;84;21247;-54
2021/03/11 04:43:52;;;;;;;234.47;65.05;;;;;;;-3.20;59.59;101752.86;1691443;85;21243;-54
2021/03/11 04:46:58;;;;;;;110.05;40.67;;;;;;;-3.25;60.13;101761.52;1691322;85;21251;-54
2021/03/11 04:50:08;;;;;;;89.87;37.73;;;;;;;-3.16;60.46;101760.33;1689296;85;21365;-53
2021/03/11 04:53:14;;;;;;;120.35;43.15;;;;;;;-3.09;60.61;101755.14;1691156;85;21383;-54
2021/03/11 04:56:19;;;;;;;68.62;31.33;;;;;;;-2.98;60.69;101761.45;1690999;85;21776;-54
2021/03/11 04:59:26;;;;;;;66.10;26.52;;;;;;;-2.87;60.77;101761.44;1691230;85;21376;-53
2021/03/11 05:02:34;;;;;;;276.73;37.40;;;;;;;-2.76;60.57;101763.28;1691345;85;21279;-53
2021/03/11 05:05:45;;;;;;;123.50;23.35;;;;;;;-2.63;60.41;101767.20;1691262;85;21370;-53
2021/03/11 05:08:51;;;;;;;41.10;16.25;;;;;;;-2.51;60.08;101757.83;1690761;85;21514;-54
2021/03/11 05:11:56;;;;;;;48.50;16.75;;;;;;;-2.44;59.64;101764.22;1691255;85;21338;-54
2021/03/11 05:15:01;;;;;;;47.13;16.20;;;;;;;-2.35;59.49;101765.67;1691354;85;21353;-53
2021/03/11 05:18:07;;;;;;;32.17;14.65;;;;;;;-2.26;59.32;101763.95;1690510;85;21373;-55
2021/03/11 05:21:14;;;;;;;28.55;15.70;;;;;;;-2.17;59.18;101768.48;1691109;85;21365;-55
2021/03/11 05:24:21;;;;;;;33.23;17.05;;;;;;;-2.08;58.98;101768.59;1690866;85;21866;-55
2021/03/11 05:27:28;;;;;;;38.63;17.62;;;;;;;-2.02;58.79;101773.25;1666708;85;21242;-53
2021/03/11 05:30:37;;;;;;;38.35;17.50;;;;;;;-1.95;58.51;101776.06;1690408;85;21361;-55
2021/03/11 05:33:43;;;;;;;38.53;17.70;;;;;;;-1.84;58.42;101772.47;1655481;84;21236;-54
2021/03/11 05:36:48;;;;;;;34.10;17.60;;;;;;;-1.72;57.76;101783.17;1660359;85;21252;-54
2021/03/11 05:39:56;;;;;;;72.32;25.57;;;;;;;-1.63;57.21;101786.34;1660320;85;21785;-54
2021/03/11 05:43:05;;;;;;;43.08;18.17;;;;;;;-1.50;56.93;101781.31;1678662;83;21585;-54
2021/03/11 05:46:10;;;;;;;45.08;21.20;;;;;;;-1.42;56.20;101779.64;1682812;85;21752;-55
2021/03/11 05:49:17;;;;;;;36.05;20.12;;;;;;;-1.36;56.03;101788.30;1715733;83;21241;-53
2021/03/11 05:52:23;;;;;;;42.62;19.65;;;;;;;-1.25;55.81;101784.68;1714873;82;21245;-53
2021/03/11 05:55:30;;;;;;;48.75;22.10;;;;;;;-1.10;55.42;101788.51;1711918;82;22054;-53
2021/03/11 05:58:38;;;;;;;52.67;22.82;;;;;;;-0.99;55.10;101794.28;1654255;85;21240;-53
2021/03/11 06:01:51;;;;;;;30.25;16.17;;;;;;;-0.85;54.82;101793.18;1692244;83;21209;-54
2021/03/11 06:05:01;;;;;;;52.20;21.70;;;;;;;-0.77;54.43;101791.91;1705175;83;21364;-54
2021/03/11 06:08:06;;;;;;;31.07;16.27;;;;;;;-0.67;54.42;101795.05;1717304;82;21217;-54
2021/03/11 06:11:14;;;;;;;40.78;18.57;;;;;;;-0.56;54.12;101795.42;1684039;85;21731;-53
2021/03/11 06:14:23;;;;;;;33.88;16.37;;;;;;;-0.47;53.75;101803.94;1682513;84;21214;-54
2021/03/11 06:17:29;;;;;;;40.08;16.57;;;;;;;-0.40;53.71;101812.09;1683168;84;21245;-54
2021/03/11 06:20:36;;;;;;;60.33;34.35;;;;;;;-0.31;53.45;101805.42;1683171;85;21225;-54
2021/03/11 06:23:41;;;;;;;40.12;22.98;;;;;;;-0.21;52.97;101814.81;1683368;83;21791;-56
2021/03/11 06:26:46;;;;;;;28.77;16.70;;;;;;;-0.14;52.90;101799.64;1686180;85;21238;-53
2021/03/11 06:29:52;;;;;;;58.60;30.17;;;;;;;-0.04;52.86;101805.45;1711149;83;21218;-54
2021/03/11 06:33:06;;;;;;;27.87;14.93;;;;;;;0.06;52.41;101809.45;1710583;84;21273;-54
2021/03/11 06:36:27;;;;;;;28.25;13.83;;;;;;;0.14;52.12;101805.91;1711014;84;21412;-54
2021/03/11 06:39:41;;;;;;;19.95;11.90;;;;;;;0.10;51.87;101808.34;1709958;83;21280;-53
2021/03/11 06:42:48;;;;;;;21.73;11.12;;;;;;;0.13;51.70;101812.23;1655511;85;21293;-53
2021/03/11 06:45:53;;;;;;;20.48;11.22;;;;;;;0.17;51.69;101817.88;1691823;83;21296;-54
2021/03/11 06:49:16;;;;;;;19.40;10.40;;;;;;;0.22;51.56;101809.56;1676220;84;21260;-53
2021/03/11 06:52:27;;;;;;;15.93;9.00;;;;;;;0.29;51.14;101807.84;1651031;85;21273;-54
2021/03/11 06:55:35;;;;;;;13.25;8.23;;;;;;;0.36;50.55;101812.45;1652716;83;21234;-53
2021/03/11 06:58:46;;;;;;;16.73;10.10;;;;;;;0.48;50.06;101807.78;1699944;82;21343;-53
2021/03/11 07:01:57;;;;;;;18.35;9.10;;;;;;;0.54;49.40;101817.77;1733700;82;21205;-54
2021/03/11 07:05:03;;;;;;;24.18;10.08;;;;;;;0.58;49.22;101817.16;1733544;82;21204;-54
2021/03/11 07:08:18;;;;;;;20.88;9.13;;;;;;;0.56;48.80;101810.95;1733631;82;21363;-53
2021/03/11 07:11:25;;;;;;;21.87;10.50;;;;;;;0.60;48.08;101809.41;1734040;82;21805;-53
2021/03/11 07:14:35;;;;;;;19.48;9.40;;;;;;;0.61;47.63;101810.25;1730923;82;21205;-53
2021/03/11 07:17:42;;;;;;;13.78;8.78;;;;;;;0.70;47.69;101810.66;1724277;81;21308;-53
2021/03/11 07:20:48;;;;;;;14.47;8.23;;;;;;;0.82;47.33;101810.05;1739537;82;21213;-53
2021/03/11 07:23:57;;;;;;;18.02;8.18;;;;;;;0.92;47.64;101820.72;1711736;83;21221;-54
2021/03/11 07:27:06;;;;;;;38.67;8.70;;;;;;;0.94;47.44;101809.39;1703006;84;21774;-54
2021/03/11 07:30:15;;;;;;;19.27;10.72;;;;;;;1.05;46.53;101810.17;1702344;84;21201;-54
2021/03/11 07:33:21;;;;;;;21.02;8.88;;;;;;;1.19;46.07;101813.88;1702762;84;21257;-54
2021/03/11 07:36:26;;;;;;;12.93;8.40;;;;;;;1.33;45.66;101815.36;1699168;84;21730;-54
2021/03/11 07:39:33;;;;;;;15.55;7.17;;;;;;;1.42;45.40;101812.19;1704892;84;21731;-53
2021/03/11 07:42:40;;;;;;;15.10;8.25;;;;;;;1.57;45.11;101816.35;1703142;84;21281;-52
2021/03/11 07:45:49;;;;;;;14.20;7.20;;;;;;;1.66;44.87;101814.48;1686074;84;21422;-54
2021/03/11 07:48:56;;;;;;;13.30;8.48;;;;;;;1.68;44.27;101813.94;1700848;84;21363;-55
2021/03/11 07:52:02;;;;;;;16.52;7.08;;;;;;;1.63;44.31;101813.31;1701674;84;21344;-52
2021/03/11 07:55:10;;;;;;;20.12;6.47;;;;;;;1.51;44.09;101809.45;1700856;84;21367;-52
2021/03/11 07:58:21;;;;;;;25.17;8.70;;;;;;;1.53;43.68;101811.12;1686778;84;21780;-52
2021/03/11 08:01:25;;;;;;;14.95;6.83;;;;;;;1.62;43.61;101805.69;1700873;84;21266;-52
2021/03/11 08:04:33;;;;;;;19.40;6.55;;;;;;;1.76;43.76;101804.44;1700496;84;21364;-53
2021/03/11 08:07:38;;;;;;;14.68;6.97;;;;;;;1.87;43.11;101809.26;1700400;84;21878;-55
2021/03/11 08:10:57;;;;;;;15.05;9.78;;;;;;;1.89;42.46;101807.35;1700309;84;21639;-53
2021/03/11 08:14:02;;;;;;;14.28;7.22;;;;;;;1.85;42.96;101811.16;1692812;83;21205;-54
2021/03/11 08:17:44;;;;;;;14.43;6.78;;;;;;;1.92;42.68;101809.87;1682117;83;21217;-51
2021/03/11 08:20:50;;;;;;;16.35;7.28;;;;;;;2.03;42.74;101808.79;1689969;84;21380;-52
2021/03/11 08:23:56;;;;;;;15.72;7.20;;;;;;;2.14;42.36;101807.20;1701409;82;21324;-52
2021/03/11 08:27:03;;;;;;;13.28;7.00;;;;;;;2.18;42.06;101804.73;1679987;83;21291;-53
2021/03/11 08:30:11;;;;;;;12.25;6.87;;;;;;;2.19;41.80;101805.61;1664654;84;21729;-53
2021/03/11 08:33:20;;;;;;;11.88;6.50;;;;;;;2.21;41.40;101809.95;1639018;86;21775;-53
2021/03/11 08:36:36;;;;;;;12.18;6.97;;;;;;;2.24;41.19;101807.07;1627173;87;21226;-53
2021/03/11 08:39:41;;;;;;;16.45;7.62;;;;;;;2.22;40.67;101809.48;1627039;88;21798;-53
2021/03/11 08:42:57;;;;;;;30.02;15.28;;;;;;;2.20;41.12;101812.27;1648477;85;21792;-53
2021/03/11 08:46:03;;;;;;;16.32;7.15;;;;;;;2.25;41.00;101799.34;1641263;86;21249;-52
2021/03/11 08:49:09;;;;;;;13.58;7.37;;;;;;;2.34;40.98;101807.41;1706681;84;21759;-52
2021/03/11 08:52:18;;;;;;;11.38;7.20;;;;;;;2.44;40.60;101803.22;1706581;84;21219;-52
2021/03/11 08:55:48;;;;;;;15.58;7.10;;;;;;;2.42;40.06;101802.44;1704085;82;21755;-51
2021/03/11 08:59:20;;;;;;;19.52;8.75;;;;;;;2.40;39.98;101804.34;1708678;82;21805;-54
2021/03/11 09:02:44;;;;;;;12.80;6.85;;;;;;;2.43;40.32;101809.09;1703100;84;21252;-52
2021/03/11 09:05:56;;;;;;;16.40;7.40;;;;;;;2.54;40.08;101816.56;1703506;84;21225;-53
2021/03/11 09:09:01;;;;;;;18.00;7.20;;;;;;;2.56;39.93;101808.78;1700820;81;21229;-50
2021/03/11 09:12:08;;;;;;;13.55;9.18;;;;;;;2.57;39.56;101806.95;1663347;86;21297;-51
2021/03/11 09:15:16;;;;;;;24.95;9.93;;;;;;;2.58;39.75;101808.22;1699441;82;21222;-51
2021/03/11 09:18:21;;;;;;;18.45;8.75;;;;;;;2.60;39.93;101804.91;1658152;86;21927;-52
2021/03/11 09:21:26;;;;;;;16.55;9.53;;;;;;;2.70;40.11;101812.88;1692986;83;21254;-52
2021/03/11 09:24:35;;;;;;;14.33;7.30;;;;;;;2.76;39.94;101806.22;1657372;84;21297;-53
2021/03/11 09:27:44;;;;;;;22.02;9.43;;;;;;;2.79;39.53;101806.91;1659934;86;21783;-51
2021/03/11 09:30:50;;;;;;;30.27;17.12;;;;;;;2.59;39.51;101803.19;1703726;84;21269;-51
2021/03/11 09:33:55;;;;;;;21.30;12.37;;;;;;;2.57;40.27;101809.66;1704905;82;21183;-51
2021/03/11 09:37:01;;;;;;;18.32;8.38;;;;;;;2.62;40.31;101800.77;1665808;85;21348;-53
2021/03/11 09:40:06;;;;;;;15.55;9.43;;;;;;;2.66;39.81;101799.64;1651023;85;21281;-52
2021/03/11 09:43:37;;;;;;;15.78;8.98;;;;;;;2.64;40.13;101801.56;1658475;85;21399;-51
2021/03/11 09:46:43;;;;;;;34.40;10.40;;;;;;;2.73;39.98;101794.24;1655889;85;21313;-51
2021/03/11 09:49:53;;;;;;;17.45;9.45;;;;;;;2.77;40.27;101783.65;1705103;84;21601;-50
2021/03/11 09:53:04;;;;;;;17.70;9.53;;;;;;;2.93;40.40;101788.52;1705325;84;21337;-50
2021/03/11 09:56:11;;;;;;;13.83;7.62;;;;;;;3.13;40.15;101785.46;1705271;84;21391;-55
2021/03/11 09:59:22;;;;;;;14.20;7.47;;;;;;;3.27;40.04;101782.77;1704964;84;22210;-50
2021/03/11 10:02:27;;;;;;;12.40;7.20;;;;;;;3.37;39.73;101783.95;1702174;84;21447;-51
2021/03/11 10:05:34;;;;;;;13.78;6.33;;;;;;;3.49;38.92;101776.90;1713592;82;21285;-50
2021/03/11 10:08:44;;;;;;;19.98;7.33;;;;;;;3.56;38.20;101781.82;1688850;82;21284;-51
2021/03/11 10:11:55;;;;;;;10.40;6.17;;;;;;;3.59;36.99;101766.73;1690069;85;21897;-53
2021/03/11 10:15:15;;;;;;;14.83;7.78;;;;;;;3.59;37.16;101764.50;1670475;85;21246;-51
2021/03/11 10:18:20;;;;;;;14.80;7.12;;;;;;;3.57;36.30;101760.53;1705047;82;21687;-51
2021/03/11 10:21:25;;;;;;;12.68;7.10;;;;;;;3.69;36.45;101761.12;1709591;82;21774;-50
2021/03/11 10:24:53;;;;;;;8.65;5.78;;;;;;;4.02;36.60;101762.11;1698825;82;21225;-51
2021/03/11 10:27:59;;;;;;;10.10;6.72;;;;;;;4.33;36.04;101752.33;1705828;82;21363;-50
2021/03/11 10:31:07;;;;;;;11.48;6.67;;;;;;;4.51;34.95;101749.27;1705955;84;21213;-51
2021/03/11 10:34:09;;;;;;;13.90;7.30;;;;;;;4.61;35.22;101746.28;1705695;82;21208;-51
2021/03/11 10:37:14;;;;;;;19.77;10.23;;;;;;;4.81;35.26;101745.41;1709330;81;21345;-50
2021/03/11 10:40:32;;;;;;;27.48;10.43;;;;;;;4.88;35.17;101744.02;1726512;82;21797;-50
2021/03/11 10:43:36;;;;;;;22.10;10.40;;;;;;;4.78;35.74;101738.84;1712969;82;21221;-51
2021/03/11 10:46:42;;;;;;;23.22;11.60;;;;;;;4.61;35.65;101739.50;1722843;82;21217;-52
2021/03/11 10:49:47;;;;;;;134.10;17.67;;;;;;;4.32;35.39;101737.92;1613941;89;21273;-50
2021/03/11 10:52:58;;;;;;;19.98;8.35;;;;;;;3.99;35.80;101732.04;1630705;86;21256;-50
2021/03/11 10:56:09;;;;;;;17.75;8.23;;;;;;;3.87;36.25;101736.89;1639439;86;21276;-51
2021/03/11 10:59:14;;;;;;;13.32;7.47;;;;;;;3.89;36.46;101720.06;1639729;85;21300;-51
2021/03/11 11:02:21;;;;;;;21.55;9.10;;;;;;;3.95;36.41;101716.94;1599681;88;21249;-52
2021/03/11 11:05:28;;;;;;;19.87;9.30;;;;;;;3.99;36.47;101711.72;1638479;86;21252;-51
2021/03/11 11:08:33;;;;;;;17.77;9.28;;;;;;;3.91;36.57;101712.72;1639012;85;21256;-54
2021/03/11 11:11:38;;;;;;;18.65;8.55;;;;;;;3.88;36.89;101714.27;1633913;87;21309;-54
2021/03/11 11:14:44;;;;;;;15.72;8.25;;;;;;;3.85;37.00;101713.59;1657837;86;21300;-54
2021/03/11 11:17:50;;;;;;;17.73;7.92;;;;;;;3.93;36.91;101718.88;1658814;86;21260;-52
2021/03/11 11:20:57;;;;;;;10.55;7.22;;;;;;;4.04;36.84;101717.67;1665180;85;21287;-53
2021/03/11 11:24:03;;;;;;;12.73;7.25;;;;;;;4.22;36.38;101712.39;1679495;84;21236;-54
2021/03/11 11:27:13;;;;;;;33.18;9.15;;;;;;;4.36;35.52;101708.27;1668335;85;21287;-53
2021/03/11 11:30:20;;;;;;;22.93;10.18;;;;;;;4.60;35.47;101699.81;1676452;85;21215;-54
2021/03/11 11:33:25;;;;;;;18.95;8.58;;;;;;;4.71;35.47;101700.92;1677482;84;21249;-54
2021/03/11 11:36:32;;;;;;;35.25;9.85;;;;;;;4.76;35.36;101696.05;1672593;84;21221;-53
2021/03/11 11:39:37;;;;;;;12.47;8.08;;;;;;;4.85;35.25;101695.41;1675058;84;21265;-53
2021/03/11 11:42:46;;;;;;;13.00;7.83;;;;;;;5.03;35.33;101689.54;1674680;85;21375;-54
2021/03/11 11:45:54;;;;;;;15.08;8.53;;;;;;;5.15;34.66;101691.88;1674966;85;21386;-54
2021/03/11 11:49:00;;;;;;;53.23;11.63;;;;;;;5.38;34.16;101685.17;1685439;84;21233;-54
2021/03/11 11:52:07;;;;;;;20.08;9.33;;;;;;;5.62;34.17;101677.95;1663643;83;21857;-54
2021/03/11 11:55:16;;;;;;;10.95;6.85;;;;;;;5.84;34.04;101677.25;1708302;82;21297;-54
2021/03/11 11:58:22;;;;;;;14.70;7.08;;;;;;;5.86;33.01;101678.02;1702156;83;21877;-54
2021/03/11 12:01:28;;;;;;;26.93;7.42;;;;;;;5.69;33.15;101686.52;1719624;82;21216;-54
2021/03/11 12:04:34;;;;;;;15.35;7.47;;;;;;;5.59;33.16;101690.88;1702801;84;21216;-54
2021/03/11 12:07:41;;;;;;;18.15;7.75;;;;;;;5.43;32.82;101679.40;1705412;82;21333;-54
2021/03/11 12:10:46;;;;;;;14.50;7.85;;;;;;;5.30;32.85;101677.19;1665824;84;21379;-53
2021/03/11 12:13:52;;;;;;;15.48;7.10;;;;;;;5.20;33.42;101681.05;1658393;84;21226;-53
2021/03/11 12:16:58;;;;;;;17.92;9.38;;;;;;;5.10;33.79;101692.21;1646938;83;21213;-53
2021/03/11 12:20:07;;;;;;;16.10;6.87;;;;;;;5.13;34.45;101695.18;1658174;85;21247;-54
2021/03/11 12:23:12;;;;;;;14.07;6.92;;;;;;;5.16;34.07;101688.17;1704697;83;21272;-54
2021/03/11 12:26:18;;;;;;;15.53;8.25;;;;;;;5.06;33.56;101687.11;1700563;84;21746;-54
2021/03/11 12:29:23;;;;;;;9.95;6.47;;;;;;;5.00;33.94;101692.47;1706314;82;21572;-53
2021/03/11 12:32:34;;;;;;;12.05;6.62;;;;;;;5.05;34.13;101684.87;1706070;84;21296;-53
2021/03/11 12:35:39;;;;;;;14.35;6.87;;;;;;;5.07;34.25;101691.55;1694707;82;21295;-53
2021/03/11 12:38:51;;;;;;;11.50;6.75;;;;;;;5.12;34.47;101689.38;1708921;82;21820;-53
2021/03/11 12:42:00;;;;;;;11.10;7.47;;;;;;;5.09;34.27;101685.53;1666563;84;21223;-54
2021/03/11 12:45:06;;;;;;;16.32;7.05;;;;;;;4.99;34.15;101687.16;1697063;84;21401;-53
2021/03/11 12:48:12;;;;;;;26.07;9.45;;;;;;;5.10;34.80;101685.42;1691356;84;21240;-53
2021/03/11 12:51:20;;;;;;;15.72;8.25;;;;;;;5.32;34.58;101692.41;1698669;83;22050;-56
2021/03/11 12:54:26;;;;;;;13.88;8.20;;;;;;;5.36;33.82;101690.34;1697851;83;21201;-43
2021/03/11 12:57:31;;;;;;;15.50;6.78;;;;;;;5.48;34.06;101689.45;1673831;83;21240;-48
2021/03/11 13:00:37;;;;;;;12.37;6.67;;;;;;;5.78;33.47;101685.83;1695599;82;21228;-51
2021/03/11 13:03:43;;;;;;;15.18;9.43;;;;;;;5.71;32.87;101688.61;1700709;84;21276;-51
2021/03/11 13:06:50;;;;;;;18.05;7.28;;;;;;;5.54;32.75;101679.48;1708733;83;21293;-49
2021/03/11 13:09:55;;;;;;;11.20;6.95;;;;;;;5.31;33.92;101685.73;1699484;84;21789;-52
2021/03/11 13:13:03;;;;;;;12.13;6.92;;;;;;;5.15;34.44;101695.95;1699165;83;21197;-53
2021/03/11 13:16:09;;;;;;;11.65;6.92;;;;;;;5.03;34.97;101696.80;1702755;84;21730;-53
2021/03/11 13:19:18;;;;;;;14.10;6.60;;;;;;;5.01;35.33;101693.35;1696828;83;21227;-49
2021/03/11 13:22:22;;;;;;;11.35;6.90;;;;;;;5.02;35.43;101689.65;1676578;85;21246;-48
2021/03/11 13:25:28;;;;;;;11.90;6.92;;;;;;;4.99;35.51;101687.16;1694960;84;21786;-48
2021/03/11 13:28:32;;;;;;;11.80;6.67;;;;;;;4.94;35.16;101690.67;1702713;83;21221;-45
2021/03/11 13:31:44;;;;;;;13.35;7.33;;;;;;;4.85;34.75;101691.33;1703077;84;21485;-45
2021/03/11 13:34:50;;;;;;;11.70;7.67;;;;;;;4.81;35.21;101688.44;1702447;84;21285;-47
2021/03/11 13:37:56;;;;;;;15.93;8.63;;;;;;;4.80;35.80;101686.23;1702166;84;21810;-58
2021/03/11 13:41:02;;;;;;;23.73;11.70;;;;;;;4.76;35.91;101679.78;1703822;83;21274;-61
2021/03/11 13:44:08;;;;;;;14.45;7.35;;;;;;;4.71;36.19;101681.42;1691715;84;21207;-54
2021/03/11 13:47:14;;;;;;;12.60;8.28;;;;;;;4.72;36.65;101676.88;1700877;83;21212;-55
2021/03/11 13:50:20;;;;;;;23.07;10.38;;;;;;;4.71;37.13;101685.50;1701518;84;21186;-54
2021/03/11 13:53:25;;;;;;;12.65;7.97;;;;;;;4.69;37.43;101686.11;1702788;84;21352;-53
2021/03/11 13:56:32;;;;;;;14.20;9.10;;;;;;;4.70;37.73;101678.83;1703454;84;21316;-53
2021/03/11 13:59:37;;;;;;;18.52;8.50;;;;;;;4.72;37.91;101680.95;1702965;84;21201;-52
2021/03/11 14:02:45;;;;;;;34.18;15.28;;;;;;;4.69;37.98;101676.63;1703494;83;21390;-52
2021/03/11 14:05:53;;;;;;;25.52;11.10;;;;;;;4.68;38.28;101672.66;1700437;84;21187;-52
2021/03/11 14:08:58;;;;;;;14.45;9.03;;;;;;;4.69;38.44;101666.25;1704418;84;21238;-53
2021/03/11 14:12:05;;;;;;;27.42;8.70;;;;;;;4.76;38.16;101664.86;1675901;84;21227;-53
2021/03/11 14:15:18;;;;;;;17.92;8.63;;;;;;;4.75;37.78;101662.62;1684024;83;21411;-54
2021/03/11 14:18:29;;;;;;;13.93;8.25;;;;;;;4.63;37.65;101672.48;1650219;85;21284;-55
2021/03/11 14:21:35;;;;;;;26.60;9.15;;;;;;;4.47;38.26;101661.47;1622353;88;21402;-52
2021/03/11 14:24:41;;;;;;;18.87;8.80;;;;;;;4.35;38.38;101660.93;1676684;85;21281;-53